Time;durP1;ratioP1;P1;durP2;ratioP2;P2;SDS_P1;SDS_P2;PMS_P1;PMS_P2;Temp;Humidity;BMP_temperature;BMP_pressure;BME280_temperature;BME280_humidity;BME280_pressure;Samples;Min_cycle;Max_cycle;Signal;HPM_P1;HPM_P2
2021/07/10 00:01:08;;;;;;;10.55;1.45;;;22.90;51.40;;;;;;6280735;28;20109;-73
2021/07/10 00:04:34;;;;;;;3.20;1.42;;;22.90;51.40;;;;;;6308888;28;20036;-73
2021/07/10 00:08:00;;;;;;;4.85;1.58;;;22.80;51.50;;;;;;6319244;28;20036;-75
2021/07/10 00:11:26;;;;;;;7.88;1.55;;;22.70;51.60;;;;;;6317241;28;20055;-73
2021/07/10 00:14:53;;;;;;;12.57;1.90;;;22.70;51.70;;;;;;6317832;28;20443;-73
2021/07/10 00:18:19;;;;;;;3.72;1.77;;;22.60;51.70;;;;;;6318951;28;20024;-74
2021/07/10 00:21:45;;;;;;;6.10;1.60;;;22.60;51.90;;;;;;6317566;28;20028;-73
2021/07/10 00:25:14;;;;;;;6.78;1.42;;;22.50;52.20;;;;;;6316643;28;20387;-73
2021/07/10 00:28:40;;;;;;;1.30;1.15;;;22.50;52.40;;;;;;6294001;28;20029;-75
2021/07/10 00:32:06;;;;;;;2.28;1.33;;;22.50;52.50;;;;;;6289622;28;20127;-74
2021/07/10 00:35:32;;;;;;;3.90;1.55;;;22.40;52.70;;;;;;6318544;28;20040;-74
2021/07/10 00:38:58;;;;;;;5.32;1.80;;;22.30;53.50;;;;;;6320937;28;20040;-73
2021/07/10 00:42:24;;;;;;;10.73;1.50;;;22.20;53.10;;;;;;6322677;28;20056;-74
2021/07/10 00:45:50;;;;;;;1.75;1.33;;;22.30;53.20;;;;;;6322429;28;20036;-75
2021/07/10 00:49:17;;;;;;;4.30;1.95;;;22.20;53.40;;;;;;6322208;28;20032;-72
2021/07/10 00:52:44;;;;;;;2.35;1.55;;;22.20;53.60;;;;;;6322096;28;20039;-72
2021/07/10 00:56:10;;;;;;;6.40;1.85;;;22.10;53.60;;;;;;6296342;28;20048;-73
2021/07/10 00:59:39;;;;;;;3.35;1.63;;;22.20;53.70;;;;;;6293091;28;22994;-73
2021/07/10 01:03:05;;;;;;;2.65;1.60;;;22.10;53.70;;;;;;6280675;28;20037;-73
2021/07/10 01:06:31;;;;;;;6.28;1.80;;;22.10;53.80;;;;;;6279791;28;20157;-74
2021/07/10 01:09:57;;;;;;;5.72;1.70;;;22.10;53.90;;;;;;6267485;28;20037;-72
2021/07/10 01:13:25;;;;;;;3.35;1.88;;;22.10;54.20;;;;;;6267713;28;20033;-73
2021/07/10 01:16:51;;;;;;;2.90;1.60;;;22.10;54.60;;;;;;6268022;28;20053;-73
2021/07/10 01:20:19;;;;;;;3.15;1.55;;;22.00;54.60;;;;;;6280467;28;21372;-73
2021/07/10 01:23:48;;;;;;;6.10;2.33;;;22.00;54.70;;;;;;6280357;28;20366;-73
2021/07/10 01:27:14;;;;;;;2.78;1.63;;;22.00;54.80;;;;;;6266893;28;20042;-72
2021/07/10 01:30:42;;;;;;;1.70;1.50;;;22.00;55.00;;;;;;6280752;28;21213;-73
2021/07/10 01:34:08;;;;;;;12.77;1.50;;;22.00;55.10;;;;;;6263835;28;20029;-74
2021/07/10 01:37:36;;;;;;;1.85;1.60;;;21.90;55.20;;;;;;6276055;28;20045;-74
2021/07/10 01:41:02;;;;;;;3.17;1.55;;;21.90;55.30;;;;;;6287824;28;20444;-73
2021/07/10 01:44:28;;;;;;;2.97;1.50;;;21.90;55.30;;;;;;6273831;28;20025;-73
2021/07/10 01:47:54;;;;;;;2.08;1.88;;;21.90;55.40;;;;;;6282179;28;20029;-73
2021/07/10 01:51:21;;;;;;;2.38;1.58;;;21.90;55.50;;;;;;6267886;28;20116;-73
2021/07/10 01:54:47;;;;;;;1.75;1.45;;;21.90;55.50;;;;;;6268161;28;20037;-73
2021/07/10 01:58:13;;;;;;;8.23;1.90;;;21.90;55.60;;;;;;6266447;28;20121;-73
2021/07/10 02:01:39;;;;;;;2.42;1.73;;;21.80;55.60;;;;;;6286699;28;20028;-73
2021/07/10 02:05:06;;;;;;;1.88;1.40;;;21.80;55.80;;;;;;6246474;28;20463;-73
2021/07/10 02:08:32;;;;;;;3.17;1.48;;;21.70;55.90;;;;;;6241224;28;20034;-73
2021/07/10 02:11:58;;;;;;;4.85;1.33;;;21.70;56.20;;;;;;6254702;28;20041;-73
2021/07/10 02:15:25;;;;;;;2.78;1.67;;;21.70;56.40;;;;;;6241716;28;20033;-73
2021/07/10 02:18:51;;;;;;;3.22;1.63;;;21.60;56.50;;;;;;6254187;28;20045;-73
2021/07/10 02:22:17;;;;;;;5.38;1.38;;;21.60;56.70;;;;;;6254555;28;20046;-73
2021/07/10 02:25:43;;;;;;;11.63;1.90;;;21.50;56.90;;;;;;6241085;28;20049;-73
2021/07/10 02:29:09;;;;;;;5.63;1.60;;;21.50;57.00;;;;;;6253905;28;20041;-73
2021/07/10 02:32:35;;;;;;;2.20;1.67;;;21.40;57.10;;;;;;6250121;28;20041;-73
2021/07/10 02:36:01;;;;;;;2.30;1.63;;;21.40;57.20;;;;;;6262814;28;20029;-73
2021/07/10 02:39:28;;;;;;;5.97;1.52;;;21.40;57.20;;;;;;6241716;28;20061;-73
2021/07/10 02:42:54;;;;;;;4.13;1.50;;;21.40;57.30;;;;;;6240754;28;20038;-73
2021/07/10 02:46:20;;;;;;;4.30;1.63;;;21.30;57.30;;;;;;6235640;28;20033;-74
2021/07/10 02:49:46;;;;;;;3.80;1.98;;;21.30;57.30;;;;;;6250160;28;20037;-74
2021/07/10 02:53:12;;;;;;;2.72;1.80;;;21.30;57.50;;;;;;6240292;28;20041;-72
2021/07/10 02:56:38;;;;;;;2.58;1.40;;;21.30;57.60;;;;;;6237415;28;20033;-74
2021/07/10 03:00:17;;;;;;;1.95;1.60;;;21.20;57.60;;;;;;6246852;28;20152;-73
2021/07/10 03:03:43;;;;;;;1.35;1.25;;;21.20;57.60;;;;;;6256254;28;20041;-74
2021/07/10 03:07:09;;;;;;;6.40;1.80;;;21.20;57.70;;;;;;6276710;28;20454;-74
2021/07/10 03:10:35;;;;;;;2.25;1.70;;;21.20;57.80;;;;;;6276652;28;20128;-73
2021/07/10 03:14:01;;;;;;;7.25;1.52;;;21.20;57.70;;;;;;6258376;28;21066;-74
2021/07/10 03:17:27;;;;;;;1.95;1.48;;;21.20;57.80;;;;;;6274333;28;20462;-73
2021/07/10 03:20:53;;;;;;;2.15;1.48;;;21.20;57.70;;;;;;6249325;28;20049;-73
2021/07/10 03:24:19;;;;;;;4.47;1.73;;;21.20;57.70;;;;;;6261996;28;20033;-74
2021/07/10 03:27:47;;;;;;;2.45;1.58;;;21.20;57.70;;;;;;6238665;28;20109;-74
2021/07/10 03:31:13;;;;;;;2.00;1.58;;;21.10;57.60;;;;;;6240053;28;20033;-73
2021/07/10 03:34:39;;;;;;;4.28;1.60;;;21.10;57.70;;;;;;6249115;28;20034;-73
2021/07/10 03:38:05;;;;;;;2.88;1.67;;;21.10;57.80;;;;;;6266675;28;20045;-73
2021/07/10 03:41:31;;;;;;;3.17;1.65;;;21.10;57.90;;;;;;6236850;28;20468;-74
2021/07/10 03:44:57;;;;;;;2.05;1.45;;;21.00;58.00;;;;;;6233684;28;20045;-74
2021/07/10 03:48:23;;;;;;;4.30;1.70;;;21.00;58.00;;;;;;6248370;28;20597;-74
2021/07/10 03:51:49;;;;;;;2.20;1.67;;;21.00;58.20;;;;;;6251607;28;20912;-74
2021/07/10 03:55:16;;;;;;;5.75;1.67;;;21.00;58.30;;;;;;6237058;28;20030;-74
2021/07/10 03:58:42;;;;;;;1.95;1.50;;;21.00;58.50;;;;;;6239483;28;20050;-75
2021/07/10 04:02:08;;;;;;;3.42;1.65;;;20.90;58.60;;;;;;6246641;28;20143;-75
2021/07/10 04:05:35;;;;;;;2.10;1.90;;;20.80;58.70;;;;;;6273499;28;20045;-75
2021/07/10 04:09:01;;;;;;;2.78;1.77;;;20.80;58.80;;;;;;6272192;28;20041;-74
2021/07/10 04:12:28;;;;;;;10.77;1.80;;;20.80;58.80;;;;;;6260950;28;20080;-74
2021/07/10 04:15:55;;;;;;;7.05;1.90;;;20.80;58.70;;;;;;6258968;28;20386;-73
2021/07/10 04:19:20;;;;;;;4.72;2.20;;;20.80;58.60;;;;;;6252468;28;20638;-73
2021/07/10 04:22:46;;;;;;;6.15;1.83;;;20.90;58.60;;;;;;6251395;28;20037;-71
2021/07/10 04:26:13;;;;;;;6.40;1.60;;;20.80;58.50;;;;;;6239676;28;20042;-71
2021/07/10 04:29:38;;;;;;;4.13;1.70;;;20.80;58.40;;;;;;6252824;28;20433;-71
2021/07/10 04:33:04;;;;;;;4.47;1.67;;;20.80;58.10;;;;;;6253453;28;20057;-71
2021/07/10 04:36:30;;;;;;;6.07;1.70;;;20.80;58.00;;;;;;6268984;28;20041;-72
2021/07/10 04:39:56;;;;;;;3.63;1.77;;;20.80;58.00;;;;;;6269743;28;20683;-72
2021/07/10 04:43:22;;;;;;;5.85;1.80;;;20.80;57.90;;;;;;6280849;28;20025;-72
2021/07/10 04:46:48;;;;;;;4.18;1.83;;;20.80;58.10;;;;;;6280476;28;20045;-72
2021/07/10 04:50:16;;;;;;;5.07;1.60;;;20.80;58.30;;;;;;6265886;28;20450;-72
2021/07/10 04:53:42;;;;;;;4.07;1.73;;;20.80;58.60;;;;;;6268326;28;20463;-72
2021/07/10 04:57:08;;;;;;;3.00;1.88;;;20.80;58.80;;;;;;6267316;28;20037;-72
2021/07/10 05:01:24;;;;;;;4.10;2.42;;;20.80;59.00;;;;;;6267987;28;20057;-72
2021/07/10 05:05:40;;;;;;;6.03;1.90;;;20.70;59.10;;;;;;6292402;28;20036;-72
2021/07/10 05:09:55;;;;;;;3.22;2.03;;;20.60;59.20;;;;;;6296289;28;20024;-71
2021/07/10 05:14:11;;;;;;;4.05;2.22;;;20.70;59.30;;;;;;6293073;28;20044;-71
2021/07/10 05:18:27;;;;;;;4.10;1.90;;;20.70;59.20;;;;;;6295660;28;20430;-71
2021/07/10 05:22:43;;;;;;;2.15;1.50;;;20.70;59.20;;;;;;6295112;28;20044;-72
2021/07/10 05:26:59;;;;;;;9.05;2.00;;;20.70;59.10;;;;;;6291174;28;20033;-72
2021/07/10 05:31:14;;;;;;;5.53;2.10;;;20.80;59.00;;;;;;6295507;28;20037;-72
2021/07/10 05:35:30;;;;;;;3.13;2.22;;;20.90;58.90;;;;;;6287098;28;20450;-72
2021/07/10 05:39:45;;;;;;;3.75;1.90;;;20.90;58.90;;;;;;6294688;28;20060;-72
2021/07/10 05:44:00;;;;;;;1.77;1.60;;;21.00;58.80;;;;;;6292189;28;20028;-72
2021/07/10 05:48:15;;;;;;;5.20;1.90;;;21.00;58.60;;;;;;6295306;28;20037;-72
2021/07/10 05:52:31;;;;;;;6.47;1.90;;;21.10;58.50;;;;;;6291329;28;20036;-72
2021/07/10 05:56:48;;;;;;;4.05;2.05;;;21.10;58.50;;;;;;6270283;28;20358;-72
2021/07/10 06:01:03;;;;;;;3.28;1.98;;;21.00;58.60;;;;;;6243792;28;20049;-73
2021/07/10 06:05:19;;;;;;;3.83;2.10;;;21.10;58.70;;;;;;6290756;28;20056;-74
2021/07/10 06:09:36;;;;;;;3.45;1.70;;;21.10;58.60;;;;;;6300283;28;20036;-72
2021/07/10 06:13:52;;;;;;;3.70;1.70;;;21.20;58.50;;;;;;6299113;28;20036;-72
2021/07/10 06:18:08;;;;;;;6.10;1.60;;;21.20;58.30;;;;;;6291547;28;20465;-72
2021/07/10 06:22:23;;;;;;;5.68;2.08;;;21.30;58.10;;;;;;6294971;28;20057;-73
2021/07/10 06:26:38;;;;;;;3.33;2.00;;;21.40;57.80;;;;;;6290171;28;20032;-74
2021/07/10 06:30:56;;;;;;;3.13;1.95;;;21.40;57.60;;;;;;6276131;28;20060;-72
2021/07/10 06:35:12;;;;;;;2.65;1.77;;;21.50;57.50;;;;;;6257315;28;20402;-72
2021/07/10 06:39:27;;;;;;;3.08;1.80;;;21.60;57.40;;;;;;6253404;28;20038;-72
2021/07/10 06:43:44;;;;;;;1.98;1.52;;;21.80;57.20;;;;;;6245185;28;20459;-73
2021/07/10 06:48:01;;;;;;;4.32;1.98;;;21.90;56.80;;;;;;6237928;28;20037;-72
2021/07/10 06:52:16;;;;;;;5.85;1.75;;;22.00;56.50;;;;;;6244037;28;20033;-72
2021/07/10 06:56:31;;;;;;;3.33;2.00;;;22.10;56.20;;;;;;6238890;28;20037;-72
2021/07/10 07:00:47;;;;;;;2.90;1.80;;;22.20;56.00;;;;;;6244529;28;20538;-72
2021/07/10 07:05:02;;;;;;;4.60;1.70;;;22.40;55.80;;;;;;6261752;28;20037;-73
2021/07/10 07:09:17;;;;;;;4.10;1.40;;;22.60;55.40;;;;;;6268681;28;20041;-73
2021/07/10 07:13:33;;;;;;;4.20;1.60;;;22.70;54.90;;;;;;6265631;28;20040;-71
2021/07/10 07:17:49;;;;;;;5.85;1.77;;;22.90;54.10;;;;;;6264877;28;20033;-72
2021/07/10 07:22:05;;;;;;;3.05;1.95;;;23.10;54.10;;;;;;6263418;28;20057;-72
2021/07/10 07:26:22;;;;;;;1.95;1.55;;;23.20;53.70;;;;;;6269100;28;20124;-72
2021/07/10 07:30:38;;;;;;;2.95;1.77;;;23.20;53.30;;;;;;6264380;28;20041;-72
2021/07/10 07:34:53;;;;;;;4.93;1.60;;;23.30;53.10;;;;;;6253882;28;20033;-72
2021/07/10 07:39:10;;;;;;;1.52;1.40;;;23.50;52.60;;;;;;6239624;28;20045;-74
2021/07/10 07:43:24;;;;;;;3.13;1.73;;;23.60;52.20;;;;;;6232514;28;20379;-74
2021/07/10 07:47:40;;;;;;;6.78;1.73;;;23.70;52.00;;;;;;6255678;28;20112;-73
2021/07/10 07:51:57;;;;;;;8.35;2.00;;;23.80;51.80;;;;;;6252781;28;20450;-74
2021/07/10 07:56:14;;;;;;;1.83;1.35;;;24.00;51.60;;;;;;6252610;28;20045;-73
2021/07/10 08:00:30;;;;;;;10.88;2.03;;;24.30;51.20;;;;;;6259303;28;20660;-71
2021/07/10 08:04:46;;;;;;;3.78;1.40;;;24.50;50.00;;;;;;6239235;28;20029;-73
2021/07/10 08:09:02;;;;;;;2.10;1.50;;;24.50;49.50;;;;;;6234453;28;20045;-72
2021/07/10 08:13:17;;;;;;;13.70;2.15;;;24.70;49.30;;;;;;6247694;28;20037;-72
2021/07/10 08:17:32;;;;;;;10.88;2.00;;;24.90;48.90;;;;;;6222870;28;20030;-72
2021/07/10 08:21:47;;;;;;;19.88;5.07;;;25.10;48.40;;;;;;6256823;28;20061;-72
